パース の空港の天気 - METARとTAF

パース空港 ( YPPH / PER ) - オーストラリア 西オーストラリア州パース
飛行場実況気象(Metar)
観測時間09/25 07:30 AWST (09/24 23:30 UTC)
風向・風速東 6m/s
視程10km以上
天気現象
なし
気温12℃
湿度62%
気圧1013hPa
METARYPPH 242330Z 10011KT CAVOK 12/05 Q1013
過去の天気等 Google飛行場航空写真 Wunderground天気予報

過去48時間のMETAR

飛行場予報(TAF)
発表時間: 9/25 07:27 AWST (9/24 23:27 UTC)
予報対象時間: 25日8時 AWST ~ 26日14時 AWST
風向・風速東 8m/s
視程10km以上
なし
25日10時 AWST から
風向・風速東 7m/s 瞬間風速 13m/s
視程10km以上
なし
25日17時 AWST から
風向・風速東南東 6m/s
視程10km以上
なし
26日4時 AWST から
風向・風速北東 3m/s
視程10km以上
なし
26日9時 AWST から
風向・風速西 6m/s
視程10km以上
天気現象弱いしゅう雨
全天の4割程度の雲 雲底高度 1070m
全天の4割程度の雲 雲底高度 1520m
TAF AMD YPPH 242327Z 2500/2606 10015KT CAVOK
FM250200 09014G26KT CAVOK
FM250900 11012KT CAVOK
FM252000 04006KT CAVOK
FM260100 26012KT 9999 -SHRA SCT035 SCT050 INTER 2604/2606 4000 SHRA BKN025